sensor_id;sensor_type;location;lat;lon;timestamp;temperature;humidity
4312;DHT22;77323;49.086;9.284;2024-03-25T00:00:14;8.60;58.60
4312;DHT22;77323;49.086;9.284;2024-03-25T00:01:16;8.60;58.50
4312;DHT22;77323;49.086;9.284;2024-03-25T00:02:16;8.60;58.60
4312;DHT22;77323;49.086;9.284;2024-03-25T00:03:17;8.60;58.60
4312;DHT22;77323;49.086;9.284;2024-03-25T00:04:18;8.60;58.50
4312;DHT22;77323;49.086;9.284;2024-03-25T00:05:21;8.60;58.50
4312;DHT22;77323;49.086;9.284;2024-03-25T00:06:23;8.60;58.50
4312;DHT22;77323;49.086;9.284;2024-03-25T00:07:23;8.60;58.40
4312;DHT22;77323;49.086;9.284;2024-03-25T00:08:24;8.60;58.50
4312;DHT22;77323;49.086;9.284;2024-03-25T00:09:25;8.60;59.10
4312;DHT22;77323;49.086;9.284;2024-03-25T00:10:26;8.60;58.50
4312;DHT22;77323;49.086;9.284;2024-03-25T00:11:27;8.60;58.50
4312;DHT22;77323;49.086;9.284;2024-03-25T00:12:28;8.60;58.50
4312;DHT22;77323;49.086;9.284;2024-03-25T00:13:29;8.60;58.50
4312;DHT22;77323;49.086;9.284;2024-03-25T00:14:30;8.60;58.60
4312;DHT22;77323;49.086;9.284;2024-03-25T00:15:31;8.60;58.60
4312;DHT22;77323;49.086;9.284;2024-03-25T00:16:34;8.60;58.60
4312;DHT22;77323;49.086;9.284;2024-03-25T00:17:37;8.60;58.60
4312;DHT22;77323;49.086;9.284;2024-03-25T00:18:37;8.60;58.60
4312;DHT22;77323;49.086;9.284;2024-03-25T00:19:38;8.60;58.60
4312;DHT22;77323;49.086;9.284;2024-03-25T00:20:40;8.50;58.50
4312;DHT22;77323;49.086;9.284;2024-03-25T00:21:40;8.50;58.50
4312;DHT22;77323;49.086;9.284;2024-03-25T00:22:42;8.60;58.60
4312;DHT22;77323;49.086;9.284;2024-03-25T00:23:43;8.50;58.60
4312;DHT22;77323;49.086;9.284;2024-03-25T00:24:45;8.50;58.60
4312;DHT22;77323;49.086;9.284;2024-03-25T00:25:45;8.50;58.60
4312;DHT22;77323;49.086;9.284;2024-03-25T00:26:46;8.50;58.60
4312;DHT22;77323;49.086;9.284;2024-03-25T00:27:47;8.50;58.60
4312;DHT22;77323;49.086;9.284;2024-03-25T00:28:49;8.50;58.60
4312;DHT22;77323;49.086;9.284;2024-03-25T00:29:50;8.50;58.60
4312;DHT22;77323;49.086;9.284;2024-03-25T00:30:50;8.60;58.70
4312;DHT22;77323;49.086;9.284;2024-03-25T00:31:51;8.60;58.70
4312;DHT22;77323;49.086;9.284;2024-03-25T00:32:51;8.50;58.60
4312;DHT22;77323;49.086;9.284;2024-03-25T00:33:53;8.60;58.70
4312;DHT22;77323;49.086;9.284;2024-03-25T00:34:54;8.60;58.70
4312;DHT22;77323;49.086;9.284;2024-03-25T00:35:54;8.60;58.70
4312;DHT22;77323;49.086;9.284;2024-03-25T00:36:56;8.60;58.70
4312;DHT22;77323;49.086;9.284;2024-03-25T00:37:56;8.60;58.60
4312;DHT22;77323;49.086;9.284;2024-03-25T00:38:57;8.60;58.70
4312;DHT22;77323;49.086;9.284;2024-03-25T00:39:57;8.60;58.70
4312;DHT22;77323;49.086;9.284;2024-03-25T00:40:59;8.60;58.70
4312;DHT22;77323;49.086;9.284;2024-03-25T00:42:00;8.60;58.70
4312;DHT22;77323;49.086;9.284;2024-03-25T00:43:01;8.60;58.70
4312;DHT22;77323;49.086;9.284;2024-03-25T00:44:01;8.60;58.80
4312;DHT22;77323;49.086;9.284;2024-03-25T00:45:03;8.60;58.70
4312;DHT22;77323;49.086;9.284;2024-03-25T00:46:06;8.60;58.70
4312;DHT22;77323;49.086;9.284;2024-03-25T00:47:06;8.60;58.70
4312;DHT22;77323;49.086;9.284;2024-03-25T00:48:07;8.60;58.70
4312;DHT22;77323;49.086;9.284;2024-03-25T00:49:09;8.60;58.70
4312;DHT22;77323;49.086;9.284;2024-03-25T00:50:10;8.90;59.00
4312;DHT22;77323;49.086;9.284;2024-03-25T00:51:11;8.60;58.70
4312;DHT22;77323;49.086;9.284;2024-03-25T00:52:12;8.60;58.70
4312;DHT22;77323;49.086;9.284;2024-03-25T00:53:13;8.60;58.70
4312;DHT22;77323;49.086;9.284;2024-03-25T00:54:14;8.50;58.70
4312;DHT22;77323;49.086;9.284;2024-03-25T00:55:14;8.50;58.70
4312;DHT22;77323;49.086;9.284;2024-03-25T00:56:16;8.50;58.70
4312;DHT22;77323;49.086;9.284;2024-03-25T00:57:16;8.50;58.70
4312;DHT22;77323;49.086;9.284;2024-03-25T00:58:18;8.50;58.80
4312;DHT22;77323;49.086;9.284;2024-03-25T00:59:19;8.50;58.80
4312;DHT22;77323;49.086;9.284;2024-03-25T01:00:21;8.50;58.70
4312;DHT22;77323;49.086;9.284;2024-03-25T01:01:21;8.60;59.40
4312;DHT22;77323;49.086;9.284;2024-03-25T01:02:22;8.50;58.80
4312;DHT22;77323;49.086;9.284;2024-03-25T01:03:22;8.50;58.80
4312;DHT22;77323;49.086;9.284;2024-03-25T01:04:24;8.50;58.80
4312;DHT22;77323;49.086;9.284;2024-03-25T01:05:25;8.50;58.80
4312;DHT22;77323;49.086;9.284;2024-03-25T01:06:25;8.50;58.80
4312;DHT22;77323;49.086;9.284;2024-03-25T01:07:26;8.50;58.80
4312;DHT22;77323;49.086;9.284;2024-03-25T01:08:27;8.50;58.80
4312;DHT22;77323;49.086;9.284;2024-03-25T01:09:28;8.50;58.80
4312;DHT22;77323;49.086;9.284;2024-03-25T01:10:30;8.50;58.80
4312;DHT22;77323;49.086;9.284;2024-03-25T01:11:31;8.50;58.80
4312;DHT22;77323;49.086;9.284;2024-03-25T01:12:33;8.50;58.80
4312;DHT22;77323;49.086;9.284;2024-03-25T01:13:34;8.50;58.90
4312;DHT22;77323;49.086;9.284;2024-03-25T01:14:34;8.50;58.90
4312;DHT22;77323;49.086;9.284;2024-03-25T01:15:35;8.60;58.90
4312;DHT22;77323;49.086;9.284;2024-03-25T01:16:36;8.60;58.90
4312;DHT22;77323;49.086;9.284;2024-03-25T01:17:37;8.50;58.80
4312;DHT22;77323;49.086;9.284;2024-03-25T01:18:38;8.60;58.90
4312;DHT22;77323;49.086;9.284;2024-03-25T01:19:38;8.60;58.80
4312;DHT22;77323;49.086;9.284;2024-03-25T01:20:40;8.50;58.80
4312;DHT22;77323;49.086;9.284;2024-03-25T01:21:41;8.60;58.80
4312;DHT22;77323;49.086;9.284;2024-03-25T01:22:41;8.60;58.80
4312;DHT22;77323;49.086;9.284;2024-03-25T01:23:43;8.60;58.90
4312;DHT22;77323;49.086;9.284;2024-03-25T01:24:43;8.60;58.80
4312;DHT22;77323;49.086;9.284;2024-03-25T01:25:44;8.60;58.90
4312;DHT22;77323;49.086;9.284;2024-03-25T01:26:45;8.50;58.80
4312;DHT22;77323;49.086;9.284;2024-03-25T01:27:46;8.60;58.90
4312;DHT22;77323;49.086;9.284;2024-03-25T01:28:47;8.60;58.90
4312;DHT22;77323;49.086;9.284;2024-03-25T01:29:48;8.60;58.80
4312;DHT22;77323;49.086;9.284;2024-03-25T01:30:49;8.50;58.80
4312;DHT22;77323;49.086;9.284;2024-03-25T01:31:50;8.60;58.90
4312;DHT22;77323;49.086;9.284;2024-03-25T01:32:51;8.60;58.90
4312;DHT22;77323;49.086;9.284;2024-03-25T01:33:52;8.50;58.80
4312;DHT22;77323;49.086;9.284;2024-03-25T01:34:53;8.50;58.80
4312;DHT22;77323;49.086;9.284;2024-03-25T01:35:54;8.50;58.80
4312;DHT22;77323;49.086;9.284;2024-03-25T01:36:56;8.50;58.80
4312;DHT22;77323;49.086;9.284;2024-03-25T01:37:57;8.50;58.80
4312;DHT22;77323;49.086;9.284;2024-03-25T01:38:58;8.50;58.80
4312;DHT22;77323;49.086;9.284;2024-03-25T01:39:59;8.60;58.90
4312;DHT22;77323;49.086;9.284;2024-03-25T01:41:09;8.50;58.90
4312;DHT22;77323;49.086;9.284;2024-03-25T01:42:10;8.50;58.90
4312;DHT22;77323;49.086;9.284;2024-03-25T01:43:12;8.50;58.80
4312;DHT22;77323;49.086;9.284;2024-03-25T01:44:12;8.50;58.90
4312;DHT22;77323;49.086;9.284;2024-03-25T01:45:13;8.50;58.80
4312;DHT22;77323;49.086;9.284;2024-03-25T01:46:15;8.50;58.90
4312;DHT22;77323;49.086;9.284;2024-03-25T01:47:18;8.50;58.90
4312;DHT22;77323;49.086;9.284;2024-03-25T01:48:18;8.50;58.90
4312;DHT22;77323;49.086;9.284;2024-03-25T01:49:19;8.50;58.90
4312;DHT22;77323;49.086;9.284;2024-03-25T01:50:21;8.50;58.80
4312;DHT22;77323;49.086;9.284;2024-03-25T01:51:23;8.50;58.80
4312;DHT22;77323;49.086;9.284;2024-03-25T01:52:24;8.50;58.90
4312;DHT22;77323;49.086;9.284;2024-03-25T01:53:27;8.50;58.90
4312;DHT22;77323;49.086;9.284;2024-03-25T01:54:29;8.50;58.90
4312;DHT22;77323;49.086;9.284;2024-03-25T01:55:32;8.50;58.90
4312;DHT22;77323;49.086;9.284;2024-03-25T01:56:35;8.50;58.80
4312;DHT22;77323;49.086;9.284;2024-03-25T01:57:37;8.50;58.80
4312;DHT22;77323;49.086;9.284;2024-03-25T01:58:39;8.50;58.90
4312;DHT22;77323;49.086;9.284;2024-03-25T01:59:40;8.50;58.90
4312;DHT22;77323;49.086;9.284;2024-03-25T02:00:41;8.50;58.90
4312;DHT22;77323;49.086;9.284;2024-03-25T02:01:44;8.50;58.90
4312;DHT22;77323;49.086;9.284;2024-03-25T02:02:47;8.50;58.90
4312;DHT22;77323;49.086;9.284;2024-03-25T02:03:48;8.50;58.90
4312;DHT22;77323;49.086;9.284;2024-03-25T02:04:49;8.50;58.90
4312;DHT22;77323;49.086;9.284;2024-03-25T02:05:55;8.50;58.90
4312;DHT22;77323;49.086;9.284;2024-03-25T02:06:57;8.50;58.90
4312;DHT22;77323;49.086;9.284;2024-03-25T02:07:59;8.50;58.90
4312;DHT22;77323;49.086;9.284;2024-03-25T02:09:00;8.40;58.80
4312;DHT22;77323;49.086;9.284;2024-03-25T02:10:03;8.40;58.90
4312;DHT22;77323;49.086;9.284;2024-03-25T02:11:05;8.40;58.90
4312;DHT22;77323;49.086;9.284;2024-03-25T02:12:07;8.40;58.90
4312;DHT22;77323;49.086;9.284;2024-03-25T02:13:09;8.40;58.90
4312;DHT22;77323;49.086;9.284;2024-03-25T02:14:10;8.40;59.00
4312;DHT22;77323;49.086;9.284;2024-03-25T02:15:12;8.40;58.90
4312;DHT22;77323;49.086;9.284;2024-03-25T02:16:13;8.40;59.00
4312;DHT22;77323;49.086;9.284;2024-03-25T02:17:14;8.40;59.00
4312;DHT22;77323;49.086;9.284;2024-03-25T02:18:16;8.40;59.00
4312;DHT22;77323;49.086;9.284;2024-03-25T02:19:18;8.40;59.00
4312;DHT22;77323;49.086;9.284;2024-03-25T02:20:19;8.40;59.00
4312;DHT22;77323;49.086;9.284;2024-03-25T02:21:20;8.40;59.00
4312;DHT22;77323;49.086;9.284;2024-03-25T02:22:21;8.40;59.00
4312;DHT22;77323;49.086;9.284;2024-03-25T02:23:22;8.40;59.00
4312;DHT22;77323;49.086;9.284;2024-03-25T02:24:23;8.40;59.00
4312;DHT22;77323;49.086;9.284;2024-03-25T02:25:26;8.40;59.00
4312;DHT22;77323;49.086;9.284;2024-03-25T02:26:28;8.40;59.60
4312;DHT22;77323;49.086;9.284;2024-03-25T02:27:30;8.40;59.00
4312;DHT22;77323;49.086;9.284;2024-03-25T02:28:32;8.40;59.00
4312;DHT22;77323;49.086;9.284;2024-03-25T02:29:36;8.40;59.00
4312;DHT22;77323;49.086;9.284;2024-03-25T02:30:36;8.40;58.90
4312;DHT22;77323;49.086;9.284;2024-03-25T02:31:39;8.40;58.90
4312;DHT22;77323;49.086;9.284;2024-03-25T02:32:40;8.40;59.10
4312;DHT22;77323;49.086;9.284;2024-03-25T02:33:41;8.40;59.10
4312;DHT22;77323;49.086;9.284;2024-03-25T02:34:46;8.40;59.10
4312;DHT22;77323;49.086;9.284;2024-03-25T02:35:48;8.40;59.10
4312;DHT22;77323;49.086;9.284;2024-03-25T02:36:48;8.40;59.00
4312;DHT22;77323;49.086;9.284;2024-03-25T02:37:51;8.40;59.00
4312;DHT22;77323;49.086;9.284;2024-03-25T02:38:52;8.40;59.10
4312;DHT22;77323;49.086;9.284;2024-03-25T02:39:57;8.40;59.00
4312;DHT22;77323;49.086;9.284;2024-03-25T02:40:57;8.40;59.00
4312;DHT22;77323;49.086;9.284;2024-03-25T02:41:58;8.40;59.00
4312;DHT22;77323;49.086;9.284;2024-03-25T02:43:00;8.40;59.00
4312;DHT22;77323;49.086;9.284;2024-03-25T02:44:00;8.40;59.10
4312;DHT22;77323;49.086;9.284;2024-03-25T02:45:01;8.40;59.10
4312;DHT22;77323;49.086;9.284;2024-03-25T02:46:02;8.40;59.10
4312;DHT22;77323;49.086;9.284;2024-03-25T02:47:04;8.40;59.00
4312;DHT22;77323;49.086;9.284;2024-03-25T02:48:05;8.60;59.20
4312;DHT22;77323;49.086;9.284;2024-03-25T02:49:06;8.40;59.00
4312;DHT22;77323;49.086;9.284;2024-03-25T02:50:07;8.30;59.00
4312;DHT22;77323;49.086;9.284;2024-03-25T02:51:08;8.30;59.00
4312;DHT22;77323;49.086;9.284;2024-03-25T02:52:09;8.40;59.10
4312;DHT22;77323;49.086;9.284;2024-03-25T02:53:10;8.30;59.00
4312;DHT22;77323;49.086;9.284;2024-03-25T02:54:10;8.30;59.10
4312;DHT22;77323;49.086;9.284;2024-03-25T02:55:12;8.30;59.00
4312;DHT22;77323;49.086;9.284;2024-03-25T02:56:12;8.30;59.00
4312;DHT22;77323;49.086;9.284;2024-03-25T02:57:13;8.30;59.00
4312;DHT22;77323;49.086;9.284;2024-03-25T02:58:14;8.30;59.10
4312;DHT22;77323;49.086;9.284;2024-03-25T02:59:15;8.30;59.10
4312;DHT22;77323;49.086;9.284;2024-03-25T03:00:16;8.30;59.10
4312;DHT22;77323;49.086;9.284;2024-03-25T03:01:18;8.30;59.10
4312;DHT22;77323;49.086;9.284;2024-03-25T03:02:18;8.30;59.20
4312;DHT22;77323;49.086;9.284;2024-03-25T03:03:20;8.30;59.20
4312;DHT22;77323;49.086;9.284;2024-03-25T03:04:20;8.30;59.20
4312;DHT22;77323;49.086;9.284;2024-03-25T03:05:21;8.20;59.10
4312;DHT22;77323;49.086;9.284;2024-03-25T03:06:22;8.30;59.20
4312;DHT22;77323;49.086;9.284;2024-03-25T03:07:24;8.20;59.10
4312;DHT22;77323;49.086;9.284;2024-03-25T03:08:24;8.20;59.10
4312;DHT22;77323;49.086;9.284;2024-03-25T03:09:25;8.20;59.10
4312;DHT22;77323;49.086;9.284;2024-03-25T03:10:25;8.20;59.10
4312;DHT22;77323;49.086;9.284;2024-03-25T03:11:27;8.20;59.10
4312;DHT22;77323;49.086;9.284;2024-03-25T03:12:27;8.20;59.10
4312;DHT22;77323;49.086;9.284;2024-03-25T03:13:28;8.20;59.20
4312;DHT22;77323;49.086;9.284;2024-03-25T03:14:29;8.20;59.20
4312;DHT22;77323;49.086;9.284;2024-03-25T03:15:30;8.20;59.20
4312;DHT22;77323;49.086;9.284;2024-03-25T03:16:31;8.20;59.20
4312;DHT22;77323;49.086;9.284;2024-03-25T03:17:31;8.20;59.10
4312;DHT22;77323;49.086;9.284;2024-03-25T03:18:32;8.20;59.20
4312;DHT22;77323;49.086;9.284;2024-03-25T03:19:34;8.20;59.20
4312;DHT22;77323;49.086;9.284;2024-03-25T03:20:34;8.20;59.20
4312;DHT22;77323;49.086;9.284;2024-03-25T03:21:35;8.20;59.20
4312;DHT22;77323;49.086;9.284;2024-03-25T03:22:36;8.20;59.20
4312;DHT22;77323;49.086;9.284;2024-03-25T03:23:38;8.20;59.10
4312;DHT22;77323;49.086;9.284;2024-03-25T03:24:38;8.20;59.10
4312;DHT22;77323;49.086;9.284;2024-03-25T03:25:40;8.20;59.10
4312;DHT22;77323;49.086;9.284;2024-03-25T03:26:41;8.20;59.10
4312;DHT22;77323;49.086;9.284;2024-03-25T03:27:43;8.20;59.10
4312;DHT22;77323;49.086;9.284;2024-03-25T03:28:43;8.10;59.10
4312;DHT22;77323;49.086;9.284;2024-03-25T03:29:44;8.10;59.10
4312;DHT22;77323;49.086;9.284;2024-03-25T03:30:44;8.10;59.20
4312;DHT22;77323;49.086;9.284;2024-03-25T03:31:46;8.10;59.20
4312;DHT22;77323;49.086;9.284;2024-03-25T03:32:46;8.10;59.20
4312;DHT22;77323;49.086;9.284;2024-03-25T03:33:50;8.10;59.30
4312;DHT22;77323;49.086;9.284;2024-03-25T03:34:52;8.10;59.30
4312;DHT22;77323;49.086;9.284;2024-03-25T03:35:52;8.10;59.30
4312;DHT22;77323;49.086;9.284;2024-03-25T03:36:53;8.10;59.20
4312;DHT22;77323;49.086;9.284;2024-03-25T03:37:53;8.10;59.20
4312;DHT22;77323;49.086;9.284;2024-03-25T03:38:55;8.10;59.20
4312;DHT22;77323;49.086;9.284;2024-03-25T03:39:56;8.10;59.20
4312;DHT22;77323;49.086;9.284;2024-03-25T03:41:01;8.00;59.10
4312;DHT22;77323;49.086;9.284;2024-03-25T03:42:02;8.00;59.20
4312;DHT22;77323;49.086;9.284;2024-03-25T03:43:03;8.00;59.20
4312;DHT22;77323;49.086;9.284;2024-03-25T03:44:04;8.00;59.80
4312;DHT22;77323;49.086;9.284;2024-03-25T03:45:07;8.00;59.20
4312;DHT22;77323;49.086;9.284;2024-03-25T03:46:08;8.00;59.30
4312;DHT22;77323;49.086;9.284;2024-03-25T03:47:10;8.00;59.30
4312;DHT22;77323;49.086;9.284;2024-03-25T03:48:10;8.00;59.30
4312;DHT22;77323;49.086;9.284;2024-03-25T03:49:11;7.90;59.30
4312;DHT22;77323;49.086;9.284;2024-03-25T03:50:12;7.90;59.30
4312;DHT22;77323;49.086;9.284;2024-03-25T03:51:13;7.90;59.30
4312;DHT22;77323;49.086;9.284;2024-03-25T03:52:14;7.90;59.30
4312;DHT22;77323;49.086;9.284;2024-03-25T03:53:14;7.90;59.40
4312;DHT22;77323;49.086;9.284;2024-03-25T03:54:16;7.90;59.30
4312;DHT22;77323;49.086;9.284;2024-03-25T03:55:16;7.90;59.30
4312;DHT22;77323;49.086;9.284;2024-03-25T03:56:17;7.90;59.40
4312;DHT22;77323;49.086;9.284;2024-03-25T03:57:18;7.90;59.40
4312;DHT22;77323;49.086;9.284;2024-03-25T03:58:19;7.90;59.40
4312;DHT22;77323;49.086;9.284;2024-03-25T03:59:20;7.90;59.40
4312;DHT22;77323;49.086;9.284;2024-03-25T04:00:20;7.90;59.50
4312;DHT22;77323;49.086;9.284;2024-03-25T04:01:22;7.80;59.40
4312;DHT22;77323;49.086;9.284;2024-03-25T04:02:22;7.90;59.50
4312;DHT22;77323;49.086;9.284;2024-03-25T04:03:24;7.80;59.40
4312;DHT22;77323;49.086;9.284;2024-03-25T04:04:25;7.80;59.40
4312;DHT22;77323;49.086;9.284;2024-03-25T04:05:30;7.80;59.50
4312;DHT22;77323;49.086;9.284;2024-03-25T04:06:31;7.80;59.50
4312;DHT22;77323;49.086;9.284;2024-03-25T04:07:34;7.80;59.50
4312;DHT22;77323;49.086;9.284;2024-03-25T04:08:35;7.80;59.50
4312;DHT22;77323;49.086;9.284;2024-03-25T04:09:36;7.80;59.60
4312;DHT22;77323;49.086;9.284;2024-03-25T04:10:37;7.80;59.60
4312;DHT22;77323;49.086;9.284;2024-03-25T04:11:38;8.10;59.80
4312;DHT22;77323;49.086;9.284;2024-03-25T04:12:39;7.80;59.60
4312;DHT22;77323;49.086;9.284;2024-03-25T04:13:42;7.70;59.50
4312;DHT22;77323;49.086;9.284;2024-03-25T04:14:43;7.70;59.50
4312;DHT22;77323;49.086;9.284;2024-03-25T04:15:43;7.70;59.60
4312;DHT22;77323;49.086;9.284;2024-03-25T04:16:44;7.70;59.60
4312;DHT22;77323;49.086;9.284;2024-03-25T04:17:46;7.70;59.60
4312;DHT22;77323;49.086;9.284;2024-03-25T04:18:47;7.70;59.60
4312;DHT22;77323;49.086;9.284;2024-03-25T04:19:51;7.70;59.60
4312;DHT22;77323;49.086;9.284;2024-03-25T04:20:52;7.70;59.60
4312;DHT22;77323;49.086;9.284;2024-03-25T04:21:54;7.70;59.60
4312;DHT22;77323;49.086;9.284;2024-03-25T04:22:55;7.70;59.60
4312;DHT22;77323;49.086;9.284;2024-03-25T04:23:55;7.70;59.60
4312;DHT22;77323;49.086;9.284;2024-03-25T04:24:57;7.70;59.60
4312;DHT22;77323;49.086;9.284;2024-03-25T04:26:01;7.70;59.50
4312;DHT22;77323;49.086;9.284;2024-03-25T04:27:01;7.60;59.50
4312;DHT22;77323;49.086;9.284;2024-03-25T04:28:02;7.80;59.60
4312;DHT22;77323;49.086;9.284;2024-03-25T04:29:04;7.70;59.60
4312;DHT22;77323;49.086;9.284;2024-03-25T04:30:08;7.60;59.50
4312;DHT22;77323;49.086;9.284;2024-03-25T04:31:09;7.60;59.50
4312;DHT22;77323;49.086;9.284;2024-03-25T04:32:09;7.60;59.50
4312;DHT22;77323;49.086;9.284;2024-03-25T04:33:11;7.60;59.50
4312;DHT22;77323;49.086;9.284;2024-03-25T04:34:11;7.60;59.50
4312;DHT22;77323;49.086;9.284;2024-03-25T04:35:12;7.60;59.50
4312;DHT22;77323;49.086;9.284;2024-03-25T04:36:13;7.60;59.40
4312;DHT22;77323;49.086;9.284;2024-03-25T04:37:14;7.60;59.40
4312;DHT22;77323;49.086;9.284;2024-03-25T04:38:18;7.60;59.40
4312;DHT22;77323;49.086;9.284;2024-03-25T04:39:18;7.50;59.30
4312;DHT22;77323;49.086;9.284;2024-03-25T04:40:19;7.50;59.30
4312;DHT22;77323;49.086;9.284;2024-03-25T04:41:20;7.50;59.30
4312;DHT22;77323;49.086;9.284;2024-03-25T04:42:23;7.50;59.30
4312;DHT22;77323;49.086;9.284;2024-03-25T04:43:24;7.50;59.30
4312;DHT22;77323;49.086;9.284;2024-03-25T04:44:25;7.50;59.30
4312;DHT22;77323;49.086;9.284;2024-03-25T04:45:25;7.50;59.30
4312;DHT22;77323;49.086;9.284;2024-03-25T04:46:26;7.50;59.30
4312;DHT22;77323;49.086;9.284;2024-03-25T04:47:27;7.40;59.30
4312;DHT22;77323;49.086;9.284;2024-03-25T04:48:27;7.40;59.20
4312;DHT22;77323;49.086;9.284;2024-03-25T04:49:28;7.40;59.30
4312;DHT22;77323;49.086;9.284;2024-03-25T04:50:30;7.40;59.30
4312;DHT22;77323;49.086;9.284;2024-03-25T04:51:31;7.40;59.30
4312;DHT22;77323;49.086;9.284;2024-03-25T04:52:32;7.40;59.30
4312;DHT22;77323;49.086;9.284;2024-03-25T04:53:32;7.40;59.30
4312;DHT22;77323;49.086;9.284;2024-03-25T04:54:33;7.30;59.20
4312;DHT22;77323;49.086;9.284;2024-03-25T04:55:34;7.30;59.20
4312;DHT22;77323;49.086;9.284;2024-03-25T04:56:35;7.30;59.20
4312;DHT22;77323;49.086;9.284;2024-03-25T04:57:35;7.30;59.20
4312;DHT22;77323;49.086;9.284;2024-03-25T04:58:36;7.30;59.20
4312;DHT22;77323;49.086;9.284;2024-03-25T04:59:37;7.30;59.20
4312;DHT22;77323;49.086;9.284;2024-03-25T05:00:37;7.20;59.10
4312;DHT22;77323;49.086;9.284;2024-03-25T05:01:38;7.20;59.10
4312;DHT22;77323;49.086;9.284;2024-03-25T05:02:39;7.20;59.10
4312;DHT22;77323;49.086;9.284;2024-03-25T05:03:39;7.20;59.10
4312;DHT22;77323;49.086;9.284;2024-03-25T05:04:40;7.20;59.10
4312;DHT22;77323;49.086;9.284;2024-03-25T05:05:41;7.10;58.90
4312;DHT22;77323;49.086;9.284;2024-03-25T05:06:41;7.10;58.90
4312;DHT22;77323;49.086;9.284;2024-03-25T05:07:42;7.10;59.00
4312;DHT22;77323;49.086;9.284;2024-03-25T05:08:43;7.10;59.00
4312;DHT22;77323;49.086;9.284;2024-03-25T05:09:43;7.00;58.90
4312;DHT22;77323;49.086;9.284;2024-03-25T05:10:44;7.00;58.90
4312;DHT22;77323;49.086;9.284;2024-03-25T05:11:45;7.00;58.90
4312;DHT22;77323;49.086;9.284;2024-03-25T05:12:46;7.00;59.00
4312;DHT22;77323;49.086;9.284;2024-03-25T05:13:46;7.00;58.90
4312;DHT22;77323;49.086;9.284;2024-03-25T05:14:48;6.90;58.80
4312;DHT22;77323;49.086;9.284;2024-03-25T05:15:52;7.00;58.90
4312;DHT22;77323;49.086;9.284;2024-03-25T05:16:52;6.90;58.80
4312;DHT22;77323;49.086;9.284;2024-03-25T05:17:53;6.90;58.80
4312;DHT22;77323;49.086;9.284;2024-03-25T05:18:54;6.90;58.80
4312;DHT22;77323;49.086;9.284;2024-03-25T05:19:54;6.80;58.70
4312;DHT22;77323;49.086;9.284;2024-03-25T05:20:55;6.80;58.70
4312;DHT22;77323;49.086;9.284;2024-03-25T05:21:56;6.80;58.70
4312;DHT22;77323;49.086;9.284;2024-03-25T05:22:56;6.80;58.80
4312;DHT22;77323;49.086;9.284;2024-03-25T05:23:57;6.70;58.70
4312;DHT22;77323;49.086;9.284;2024-03-25T05:24:58;6.70;58.70
4312;DHT22;77323;49.086;9.284;2024-03-25T05:25:59;6.70;58.70
4312;DHT22;77323;49.086;9.284;2024-03-25T05:26:59;6.70;58.70
4312;DHT22;77323;49.086;9.284;2024-03-25T05:28:00;6.70;58.70
4312;DHT22;77323;49.086;9.284;2024-03-25T05:29:01;6.70;58.70
4312;DHT22;77323;49.086;9.284;2024-03-25T05:30:02;6.60;58.70
4312;DHT22;77323;49.086;9.284;2024-03-25T05:31:07;6.60;58.60
4312;DHT22;77323;49.086;9.284;2024-03-25T05:32:08;6.60;58.60
4312;DHT22;77323;49.086;9.284;2024-03-25T05:33:08;6.60;58.60
4312;DHT22;77323;49.086;9.284;2024-03-25T05:34:09;6.50;58.50
4312;DHT22;77323;49.086;9.284;2024-03-25T05:35:10;6.50;58.60
4312;DHT22;77323;49.086;9.284;2024-03-25T05:36:11;6.50;58.60
4312;DHT22;77323;49.086;9.284;2024-03-25T05:37:11;6.50;58.60
4312;DHT22;77323;49.086;9.284;2024-03-25T05:38:12;6.40;58.50
4312;DHT22;77323;49.086;9.284;2024-03-25T05:39:13;6.40;58.50
4312;DHT22;77323;49.086;9.284;2024-03-25T05:40:13;6.40;58.50
4312;DHT22;77323;49.086;9.284;2024-03-25T05:41:14;6.50;58.60
4312;DHT22;77323;49.086;9.284;2024-03-25T05:42:15;6.30;58.60
4312;DHT22;77323;49.086;9.284;2024-03-25T05:43:15;6.30;58.60
4312;DHT22;77323;49.086;9.284;2024-03-25T05:44:16;6.30;58.70
4312;DHT22;77323;49.086;9.284;2024-03-25T05:45:16;6.30;58.80
4312;DHT22;77323;49.086;9.284;2024-03-25T05:46:17;6.20;58.80
4312;DHT22;77323;49.086;9.284;2024-03-25T05:47:18;6.20;58.90
4312;DHT22;77323;49.086;9.284;2024-03-25T05:48:22;6.20;58.90
4312;DHT22;77323;49.086;9.284;2024-03-25T05:49:23;6.20;59.00
4312;DHT22;77323;49.086;9.284;2024-03-25T05:50:23;6.20;59.00
4312;DHT22;77323;49.086;9.284;2024-03-25T05:51:24;6.20;59.10
4312;DHT22;77323;49.086;9.284;2024-03-25T05:52:28;6.20;59.10
4312;DHT22;77323;49.086;9.284;2024-03-25T05:53:29;6.20;59.10
4312;DHT22;77323;49.086;9.284;2024-03-25T05:54:30;6.20;59.20
4312;DHT22;77323;49.086;9.284;2024-03-25T05:55:30;6.20;59.20
4312;DHT22;77323;49.086;9.284;2024-03-25T05:56:31;6.20;59.20
4312;DHT22;77323;49.086;9.284;2024-03-25T05:57:32;6.20;59.20
4312;DHT22;77323;49.086;9.284;2024-03-25T05:58:32;6.20;59.20
4312;DHT22;77323;49.086;9.284;2024-03-25T05:59:33;6.10;59.20
4312;DHT22;77323;49.086;9.284;2024-03-25T06:00:34;6.10;59.20
4312;DHT22;77323;49.086;9.284;2024-03-25T06:01:34;6.10;59.20
4312;DHT22;77323;49.086;9.284;2024-03-25T06:02:35;6.10;59.20
4312;DHT22;77323;49.086;9.284;2024-03-25T06:03:36;6.10;59.30
4312;DHT22;77323;49.086;9.284;2024-03-25T06:04:36;6.10;59.40
4312;DHT22;77323;49.086;9.284;2024-03-25T06:05:37;6.10;59.40
4312;DHT22;77323;49.086;9.284;2024-03-25T06:06:38;6.10;59.50
4312;DHT22;77323;49.086;9.284;2024-03-25T06:07:38;6.10;59.50
4312;DHT22;77323;49.086;9.284;2024-03-25T06:08:39;6.10;59.50
4312;DHT22;77323;49.086;9.284;2024-03-25T06:09:40;6.10;59.50
4312;DHT22;77323;49.086;9.284;2024-03-25T06:10:40;6.10;59.60
4312;DHT22;77323;49.086;9.284;2024-03-25T06:11:41;6.10;59.60
4312;DHT22;77323;49.086;9.284;2024-03-25T06:12:42;6.10;59.70
4312;DHT22;77323;49.086;9.284;2024-03-25T06:13:42;6.10;59.70
4312;DHT22;77323;49.086;9.284;2024-03-25T06:14:45;6.10;59.90
4312;DHT22;77323;49.086;9.284;2024-03-25T06:15:46;6.10;60.50
4312;DHT22;77323;49.086;9.284;2024-03-25T06:16:47;6.10;59.90
4312;DHT22;77323;49.086;9.284;2024-03-25T06:17:48;6.10;59.90
4312;DHT22;77323;49.086;9.284;2024-03-25T06:18:48;6.10;60.00
4312;DHT22;77323;49.086;9.284;2024-03-25T06:19:49;6.10;60.00
4312;DHT22;77323;49.086;9.284;2024-03-25T06:20:50;6.10;60.00
4312;DHT22;77323;49.086;9.284;2024-03-25T06:21:50;6.10;60.00
4312;DHT22;77323;49.086;9.284;2024-03-25T06:22:51;6.10;60.10
4312;DHT22;77323;49.086;9.284;2024-03-25T06:23:52;6.10;60.20
4312;DHT22;77323;49.086;9.284;2024-03-25T06:24:53;6.10;60.20
4312;DHT22;77323;49.086;9.284;2024-03-25T06:25:54;6.10;60.30
4312;DHT22;77323;49.086;9.284;2024-03-25T06:26:55;6.10;60.40
4312;DHT22;77323;49.086;9.284;2024-03-25T06:27:56;6.10;60.30
4312;DHT22;77323;49.086;9.284;2024-03-25T06:28:56;6.20;60.40
4312;DHT22;77323;49.086;9.284;2024-03-25T06:29:57;6.20;60.50
4312;DHT22;77323;49.086;9.284;2024-03-25T06:30:58;6.20;60.50
4312;DHT22;77323;49.086;9.284;2024-03-25T06:32:17;6.20;60.60
4312;DHT22;77323;49.086;9.284;2024-03-25T06:33:36;6.20;60.60
4312;DHT22;77323;49.086;9.284;2024-03-25T06:34:56;6.20;60.60
4312;DHT22;77323;49.086;9.284;2024-03-25T06:35:56;6.30;60.60
4312;DHT22;77323;49.086;9.284;2024-03-25T06:36:57;6.20;60.60
4312;DHT22;77323;49.086;9.284;2024-03-25T06:37:58;6.30;60.80
4312;DHT22;77323;49.086;9.284;2024-03-25T06:38:58;6.30;60.80
4312;DHT22;77323;49.086;9.284;2024-03-25T06:39:59;6.30;60.90